createdAt,value
2022-11-13T00:02:10.937Z,7.97
2022-11-13T00:05:16.015Z,8.03
2022-11-13T00:08:20.507Z,8.00
2022-11-13T00:11:25.536Z,8.01
2022-11-13T00:14:30.381Z,8.01
2022-11-13T00:17:35.330Z,8.06
2022-11-13T00:20:40.023Z,8.03
2022-11-13T00:23:45.073Z,8.03
2022-11-13T00:26:49.307Z,8.04
2022-11-13T00:29:53.894Z,8.00
2022-11-13T00:32:58.721Z,8.00
2022-11-13T00:36:05.145Z,7.97
2022-11-13T00:39:10.005Z,7.93
2022-11-13T00:42:14.368Z,7.92
2022-11-13T00:45:18.997Z,7.88
2022-11-13T00:48:23.673Z,7.87
2022-11-13T00:51:28.051Z,7.84
2022-11-13T00:54:32.716Z,7.84
2022-11-13T00:57:37.334Z,7.83
2022-11-13T01:00:43.773Z,7.79
2022-11-13T01:03:48.201Z,7.79
2022-11-13T01:06:53.002Z,7.77
2022-11-13T01:09:57.523Z,7.77
2022-11-13T01:13:01.986Z,7.77
2022-11-13T01:16:09.256Z,7.74
2022-11-13T01:19:13.506Z,7.73
2022-11-13T01:22:18.238Z,7.70
2022-11-13T01:25:22.536Z,7.69
2022-11-13T01:28:27.707Z,7.66
2022-11-13T01:31:32.410Z,7.62
2022-11-13T01:34:37.080Z,7.61
2022-11-13T01:37:44.631Z,7.59
2022-11-13T01:40:49.249Z,7.57
2022-11-13T01:43:54.860Z,7.56
2022-11-13T01:46:59.697Z,7.53
2022-11-13T01:50:04.466Z,7.51
2022-11-13T01:53:08.977Z,7.51
2022-11-13T01:56:14.326Z,7.46
2022-11-13T01:59:20.963Z,7.47
2022-11-13T02:02:26.064Z,7.47
2022-11-13T02:05:30.800Z,7.44
2022-11-13T02:08:35.388Z,7.42
2022-11-13T02:11:40.085Z,7.37
2022-11-13T02:14:47.895Z,7.37
2022-11-13T02:17:57.651Z,7.33
2022-11-13T02:21:27.458Z,7.30
2022-11-13T02:24:37.703Z,7.27
2022-11-13T02:27:45.285Z,7.26
2022-11-13T02:30:49.639Z,7.27
2022-11-13T02:33:54.234Z,7.28
2022-11-13T02:36:58.669Z,7.28
2022-11-13T02:40:03.739Z,7.29
2022-11-13T02:43:08.501Z,7.29
2022-11-13T02:46:13.092Z,7.29
2022-11-13T02:49:17.536Z,7.29
2022-11-13T02:52:22.602Z,7.25
2022-11-13T02:55:27.532Z,7.29
2022-11-13T02:58:32.261Z,7.32
2022-11-13T03:01:36.722Z,7.29
2022-11-13T03:05:10.388Z,7.31
2022-11-13T03:08:06.604Z,7.31
2022-11-13T03:11:11.424Z,7.30
2022-11-13T03:14:15.889Z,7.34
2022-11-13T03:17:20.571Z,7.32
2022-11-13T03:20:24.901Z,7.30
2022-11-13T03:23:30.622Z,7.28
2022-11-13T03:26:34.934Z,7.27
2022-11-13T03:29:39.854Z,7.25
2022-11-13T03:32:44.647Z,7.22
2022-11-13T03:35:49.605Z,7.23
2022-11-13T03:38:54.610Z,7.22
2022-11-13T03:41:58.899Z,7.22
2022-11-13T03:45:02.987Z,7.21
2022-11-13T03:48:07.759Z,7.25
2022-11-13T03:51:12.157Z,7.25
2022-11-13T03:54:16.626Z,7.26
2022-11-13T03:57:21.111Z,7.28
2022-11-13T04:00:25.886Z,7.26
2022-11-13T04:03:30.673Z,7.31
2022-11-13T04:06:35.390Z,7.25
2022-11-13T04:09:40.214Z,7.35
2022-11-13T04:12:44.886Z,7.38
2022-11-13T04:15:49.662Z,7.38
2022-11-13T04:18:54.664Z,7.39
2022-11-13T04:21:59.520Z,7.42
2022-11-13T04:25:05.240Z,7.42
2022-11-13T05:21:30.272Z,7.36
2022-11-13T05:26:01.296Z,7.37
2022-11-13T05:30:30.266Z,7.38
2022-11-13T05:35:01.250Z,7.38
2022-11-13T05:39:31.260Z,7.39
2022-11-13T05:43:41.407Z,7.38
2022-11-13T05:48:12.278Z,7.38
2022-11-13T05:52:43.276Z,7.37
2022-11-13T05:57:14.297Z,7.38
2022-11-13T06:01:45.347Z,7.40
2022-11-13T06:06:16.489Z,7.42
2022-11-13T06:10:47.313Z,7.45
2022-11-13T06:15:18.296Z,7.48
2022-11-13T06:24:26.334Z,7.52
2022-11-13T06:28:55.301Z,7.61
2022-11-13T06:33:25.251Z,7.63
2022-11-13T06:37:56.211Z,7.67
2022-11-13T06:42:26.305Z,7.72
2022-11-13T06:46:56.279Z,7.74
2022-11-13T06:51:28.189Z,7.76
2022-11-13T06:55:57.356Z,7.77
2022-11-13T07:00:32.268Z,7.79
2022-11-13T07:04:59.202Z,7.84
2022-11-13T07:09:29.126Z,7.87
2022-11-13T07:12:43.880Z,7.89
2022-11-13T07:26:47.183Z,8.01
2022-11-13T07:31:28.321Z,8.06
2022-11-13T07:35:13.781Z,8.12
2022-11-13T07:39:44.345Z,8.18
2022-11-13T07:42:59.042Z,8.22
2022-11-13T07:46:37.365Z,8.30
2022-11-13T07:49:42.501Z,8.37
2022-11-13T07:52:47.040Z,8.41
2022-11-13T07:57:16.327Z,8.48
2022-11-13T08:01:47.360Z,8.55
2022-11-13T08:06:18.394Z,8.63
2022-11-13T08:10:48.358Z,8.71
2022-11-13T08:15:19.411Z,8.80
2022-11-13T08:19:50.404Z,8.88
2022-11-13T08:29:10.812Z,9.09
2022-11-13T08:33:41.651Z,9.20
2022-11-13T08:38:11.384Z,9.33
2022-11-13T08:42:42.411Z,9.46
2022-11-13T08:47:13.388Z,9.64
2022-11-13T08:51:44.422Z,9.83
2022-11-13T08:56:15.407Z,10.08
2022-11-13T09:00:33.752Z,10.35
2022-11-13T09:03:38.411Z,10.59
2022-11-13T09:06:42.923Z,10.75
2022-11-13T09:11:13.324Z,10.99
2022-11-13T09:14:18.011Z,11.23
2022-11-13T09:17:22.426Z,11.41
2022-11-13T09:21:51.452Z,11.61
2022-11-13T09:30:59.475Z,12.17
2022-11-13T09:35:28.393Z,12.43
2022-11-13T09:39:59.437Z,12.65
2022-11-13T09:52:55.677Z,13.11
2022-11-13T10:00:44.454Z,13.48
2022-11-13T10:04:49.079Z,13.65
2022-11-13T10:09:03.167Z,13.87
2022-11-13T10:32:14.514Z,15.09
2022-11-13T10:35:57.860Z,15.32
2022-11-13T10:39:23.142Z,15.54
2022-11-13T10:43:58.663Z,15.72
2022-11-13T10:48:03.271Z,15.98
2022-11-13T10:51:46.984Z,16.21
2022-11-13T10:56:16.502Z,16.37
2022-11-13T11:00:47.883Z,16.64
2022-11-13T11:05:18.554Z,16.87
2022-11-13T11:09:05.084Z,17.06
2022-11-13T11:13:25.598Z,17.29
2022-11-13T11:16:31.246Z,17.71
2022-11-13T11:19:37.847Z,18.02
2022-11-13T11:32:41.638Z,19.38
2022-11-13T11:36:50.539Z,19.79
2022-11-13T11:40:00.751Z,20.03
2022-11-13T11:43:18.871Z,19.89
2022-11-13T11:46:25.293Z,19.78
2022-11-13T11:49:30.164Z,19.72
2022-11-13T11:52:54.792Z,19.59
2022-11-13T11:56:20.757Z,19.60
2022-11-13T11:59:51.693Z,19.48
2022-11-13T12:03:25.947Z,19.43
2022-11-13T12:06:57.650Z,19.50
2022-11-13T12:10:17.459Z,19.53
2022-11-13T12:13:29.315Z,19.62
2022-11-13T12:16:50.322Z,19.54
2022-11-13T12:20:17.881Z,19.57
2022-11-13T12:23:35.117Z,19.65
2022-11-13T12:26:59.128Z,19.74
2022-11-13T12:30:28.293Z,19.86
2022-11-13T12:34:00.884Z,19.92
2022-11-13T12:37:11.730Z,19.98
2022-11-13T12:40:44.655Z,20.01
2022-11-13T12:44:10.885Z,19.97
2022-11-13T12:47:15.826Z,19.90
2022-11-13T12:50:32.533Z,19.92
2022-11-13T12:53:49.474Z,19.98
2022-11-13T12:56:54.006Z,20.05
2022-11-13T13:00:02.280Z,20.14
2022-11-13T13:03:27.709Z,20.12
2022-11-13T13:06:54.055Z,20.29
2022-11-13T13:10:23.476Z,20.35
2022-11-13T13:13:38.157Z,20.34
2022-11-13T13:16:42.608Z,20.29
2022-11-13T13:19:57.880Z,20.22
2022-11-13T13:23:07.254Z,19.97
2022-11-13T13:26:22.584Z,19.97
2022-11-13T13:29:30.230Z,19.80
2022-11-13T13:32:55.483Z,19.75
2022-11-13T13:36:12.459Z,19.69
2022-11-13T13:39:46.761Z,19.68
2022-11-13T13:43:22.877Z,19.62
2022-11-13T13:46:31.402Z,19.59
2022-11-13T13:49:36.660Z,19.49
2022-11-13T13:52:41.019Z,19.45
2022-11-13T13:56:05.316Z,19.31
2022-11-13T13:59:18.463Z,19.17
2022-11-13T14:02:24.214Z,18.85
2022-11-13T14:05:31.680Z,18.53
2022-11-13T14:08:36.098Z,18.15
2022-11-13T14:11:40.284Z,17.84
2022-11-13T14:14:44.973Z,17.60
2022-11-13T14:17:49.590Z,17.31
2022-11-13T14:20:56.847Z,17.11
2022-11-13T14:24:03.628Z,16.92
2022-11-13T14:27:13.146Z,16.73
2022-11-13T14:30:30.466Z,16.59
2022-11-13T14:33:41.262Z,16.44
2022-11-13T14:36:46.001Z,16.28
2022-11-13T14:39:51.318Z,16.17
2022-11-13T14:42:58.972Z,16.05
2022-11-13T14:46:05.795Z,15.96
2022-11-13T14:49:17.080Z,15.90
2022-11-13T14:52:27.840Z,15.79
2022-11-13T14:55:37.095Z,15.69
2022-11-13T14:58:47.025Z,15.58
2022-11-13T15:01:55.673Z,15.47
2022-11-13T15:05:00.372Z,15.36
2022-11-13T15:08:05.425Z,15.27
2022-11-13T15:11:14.072Z,15.15
2022-11-13T15:14:20.326Z,15.02
2022-11-13T15:17:25.279Z,14.94
2022-11-13T15:20:31.204Z,14.87
2022-11-13T15:23:39.225Z,14.76
2022-11-13T15:26:44.181Z,14.73
2022-11-13T15:29:51.274Z,14.64
2022-11-13T15:32:57.250Z,14.58
2022-11-13T15:36:01.847Z,14.55
2022-11-13T15:39:09.385Z,14.50
2022-11-13T15:42:18.477Z,14.43
2022-11-13T15:45:23.033Z,14.43
2022-11-13T15:48:27.807Z,14.35
2022-11-13T15:51:42.162Z,14.35
2022-11-13T15:54:46.934Z,14.28
2022-11-13T15:57:51.291Z,14.26
2022-11-13T16:00:55.574Z,14.14
2022-11-13T16:04:02.505Z,14.08
2022-11-13T16:07:14.386Z,14.02
2022-11-13T16:10:19.877Z,13.99
2022-11-13T16:13:24.595Z,13.94
2022-11-13T16:16:33.954Z,13.91
2022-11-13T16:19:39.230Z,13.88
2022-11-13T16:22:44.519Z,13.82
2022-11-13T16:25:49.482Z,13.74
2022-11-13T16:32:19.459Z,13.65
2022-11-13T16:35:24.031Z,13.60
2022-11-13T16:38:28.623Z,13.57
2022-11-13T16:41:33.543Z,13.52
2022-11-13T16:44:38.722Z,13.48
2022-11-13T16:47:43.507Z,13.46
2022-11-13T16:50:48.453Z,13.41
2022-11-13T16:53:54.185Z,13.38
2022-11-13T16:56:58.922Z,13.29
2022-11-13T17:00:06.302Z,13.23
2022-11-13T17:03:11.071Z,13.10
2022-11-13T17:06:19.898Z,12.98
2022-11-13T17:09:24.813Z,12.96
2022-11-13T17:12:29.005Z,12.89
2022-11-13T17:15:33.820Z,12.87
2022-11-13T17:18:38.240Z,12.80
2022-11-13T17:21:44.449Z,12.74
2022-11-13T17:24:50.421Z,12.73
2022-11-13T17:27:54.695Z,12.66
2022-11-13T17:31:31.125Z,12.61
2022-11-13T17:34:36.799Z,12.57
2022-11-13T17:37:41.910Z,12.48
2022-11-13T17:40:48.193Z,12.39
2022-11-13T17:43:56.803Z,12.29
2022-11-13T17:47:04.467Z,12.17
2022-11-13T17:50:09.524Z,12.15
2022-11-13T17:53:13.716Z,12.09
2022-11-13T17:56:20.191Z,12.06
2022-11-13T17:59:24.955Z,12.04
2022-11-13T18:02:29.739Z,12.03
2022-11-13T18:05:40.495Z,11.98
2022-11-13T18:08:46.219Z,11.92
2022-11-13T18:11:50.991Z,11.86
2022-11-13T18:14:55.605Z,11.80
2022-11-13T18:18:02.704Z,11.81
2022-11-13T18:21:23.018Z,11.70
2022-11-13T18:24:28.042Z,11.71
2022-11-13T18:27:32.663Z,11.67
2022-11-13T18:30:39.431Z,11.60
2022-11-13T18:33:43.820Z,11.54
2022-11-13T18:36:48.487Z,11.50
2022-11-13T18:39:53.042Z,11.41
2022-11-13T18:42:57.444Z,11.40
2022-11-13T18:46:04.942Z,11.40
2022-11-13T18:49:09.496Z,11.35
2022-11-13T18:52:13.804Z,11.38
2022-11-13T18:55:18.243Z,11.32
2022-11-13T18:58:23.047Z,11.30
2022-11-13T19:01:31.814Z,11.26
2022-11-13T19:04:36.437Z,11.21
2022-11-13T19:07:40.882Z,11.10
2022-11-13T19:10:45.315Z,11.00
2022-11-13T19:13:50.010Z,10.81
2022-11-13T19:16:55.364Z,10.76
2022-11-13T19:19:59.904Z,10.71
2022-11-13T19:23:09.044Z,10.72
2022-11-13T19:26:14.423Z,10.70
2022-11-13T19:29:19.564Z,10.70
2022-11-13T19:32:24.305Z,10.66
2022-11-13T19:35:29.086Z,10.68
2022-11-13T19:38:33.638Z,10.67
2022-11-13T19:41:38.585Z,10.67
2022-11-13T19:44:42.590Z,10.64
2022-11-13T19:47:47.008Z,10.57
2022-11-13T19:50:51.698Z,10.49
2022-11-13T19:53:58.628Z,10.43
2022-11-13T19:57:03.398Z,10.46
2022-11-13T20:00:08.704Z,10.43
2022-11-13T20:03:13.804Z,10.42
2022-11-13T20:06:18.231Z,10.41
2022-11-13T20:09:22.697Z,10.41
2022-11-13T20:12:29.588Z,10.37
2022-11-13T20:15:34.453Z,10.38
2022-11-13T20:18:39.443Z,10.33
2022-11-13T20:21:43.845Z,10.34
2022-11-13T20:24:48.470Z,10.33
2022-11-13T20:27:52.930Z,10.30
2022-11-13T20:31:06.967Z,10.27
2022-11-13T20:34:11.737Z,10.26
2022-11-13T20:37:16.110Z,10.23
2022-11-13T20:40:21.009Z,10.16
2022-11-13T20:43:25.479Z,10.10
2022-11-13T20:46:30.745Z,9.99
2022-11-13T20:49:35.049Z,9.96
2022-11-13T20:52:40.435Z,9.97
2022-11-13T20:55:45.278Z,9.97
2022-11-13T20:58:50.129Z,9.95
2022-11-13T21:01:54.978Z,9.91
2022-11-13T21:04:59.897Z,9.88
2022-11-13T21:08:04.841Z,9.81
2022-11-13T21:11:14.602Z,9.80
2022-11-13T21:14:19.291Z,9.75
2022-11-13T21:17:23.576Z,9.67
2022-11-13T21:20:29.077Z,9.61
2022-11-13T21:23:34.601Z,9.58
2022-11-13T21:26:38.984Z,9.46
2022-11-13T21:29:44.248Z,9.35
2022-11-13T21:32:48.925Z,9.26
2022-11-13T21:35:53.409Z,9.15
2022-11-13T21:38:58.066Z,8.92
2022-11-13T21:42:03.068Z,8.82
2022-11-13T21:45:08.430Z,8.80
2022-11-13T21:48:13.232Z,8.76
2022-11-13T21:51:17.942Z,8.74
2022-11-13T21:54:22.795Z,8.79
2022-11-13T21:57:27.189Z,8.71
2022-11-13T22:00:31.442Z,8.65
2022-11-13T22:03:35.826Z,8.49
2022-11-13T22:06:40.507Z,8.34
2022-11-13T22:09:45.176Z,8.19
2022-11-13T22:12:49.883Z,8.17
2022-11-13T22:15:54.575Z,8.18
2022-11-13T22:19:01.536Z,8.22
2022-11-13T22:22:06.127Z,8.22
2022-11-13T22:25:10.671Z,8.25
2022-11-13T22:28:15.513Z,8.27
2022-11-13T22:31:25.133Z,8.30
2022-11-13T22:34:29.952Z,8.26
2022-11-13T22:37:34.404Z,8.25
2022-11-13T22:40:39.024Z,8.14
2022-11-13T22:43:43.498Z,8.14
2022-11-13T22:46:48.046Z,8.07
2022-11-13T22:49:52.644Z,8.07
2022-11-13T22:52:57.323Z,8.10
2022-11-13T22:56:07.061Z,8.12
2022-11-13T22:59:12.575Z,8.13
2022-11-13T23:02:16.834Z,8.13
2022-11-13T23:05:21.129Z,8.10
2022-11-13T23:08:25.809Z,8.02
2022-11-13T23:11:38.009Z,8.19
2022-11-13T23:14:43.076Z,8.18
2022-11-13T23:17:47.753Z,8.19
2022-11-13T23:20:52.356Z,8.15
2022-11-13T23:23:56.684Z,8.10
2022-11-13T23:27:00.873Z,8.07
2022-11-13T23:30:05.727Z,8.07
2022-11-13T23:33:10.472Z,7.98
2022-11-13T23:36:18.047Z,7.86
2022-11-13T23:39:22.796Z,7.76
2022-11-13T23:42:39.631Z,7.74
2022-11-13T23:45:51.521Z,7.67
2022-11-13T23:48:56.186Z,7.57
2022-11-13T23:52:00.667Z,7.57
2022-11-13T23:55:05.844Z,7.55
2022-11-13T23:58:14.098Z,7.55
